Time;durP1;ratioP1;P1;durP2;ratioP2;P2;SDS_P1;SDS_P2;PMS_P1;PMS_P2;Temp;Humidity;BMP_temperature;BMP_pressure;BME280_temperature;BME280_humidity;BME280_pressure;Samples;Min_cycle;Max_cycle;Signal;HPM_P1;HPM_P2
2022/09/01 00:00:37;;;;;;;;;14.00;14.00;;;;;25.05;46.13;101031.13;2101761;28;47989;-58
2022/09/01 00:01:41;;;;;;;;;14.00;13.80;;;;;25.05;46.38;101042.00;2097377;28;48018;-60
2022/09/01 00:02:42;;;;;;;;;15.60;14.80;;;;;25.03;46.07;101030.38;2096028;28;47456;-59
2022/09/01 00:03:46;;;;;;;;;17.25;17.25;;;;;25.04;46.24;101033.97;2085554;28;47680;-59
2022/09/01 00:04:46;;;;;;;;;9.80;9.80;;;;;25.02;46.19;101031.34;2087668;28;46714;-61
2022/09/01 00:05:48;;;;;;;;;14.25;14.00;;;;;25.01;46.43;101028.75;2103495;28;47719;-59
2022/09/01 00:06:49;;;;;;;;;18.80;16.40;;;;;24.99;46.56;101031.56;2100484;28;47391;-59
2022/09/01 00:07:49;;;;;;;;;8.00;8.00;;;;;24.98;45.97;101035.25;2102052;28;47582;-59
2022/09/01 00:08:54;;;;;;;;;16.00;16.00;;;;;24.97;46.45;101030.81;2101337;28;47933;-59
2022/09/01 00:09:55;;;;;;;;;15.40;13.20;;;;;24.97;46.29;101035.38;2101970;28;47919;-59
2022/09/01 00:10:55;;;;;;;;;13.75;13.75;;;;;24.97;46.40;101032.66;2085252;28;46398;-59
2022/09/01 00:11:55;;;;;;;;;15.75;14.00;;;;;24.96;46.01;101029.09;2085823;28;48182;-59
2022/09/01 00:12:56;;;;;;;;;15.25;15.00;;;;;24.95;46.46;101028.22;2103724;28;46543;-59
2022/09/01 00:14:00;;;;;;;;;15.75;14.50;;;;;24.96;46.62;101037.22;2102709;27;47895;-59
2022/09/01 00:15:00;;;;;;;;;13.60;13.60;;;;;24.96;46.66;101034.50;2103071;28;47453;-60
2022/09/01 00:16:03;;;;;;;;;15.75;15.75;;;;;24.95;46.40;101032.78;2101560;28;47861;-59
2022/09/01 00:17:07;;;;;;;;;11.80;11.20;;;;;24.94;46.19;101031.91;2101754;28;47498;-60
2022/09/01 00:18:08;;;;;;;;;13.40;13.40;;;;;24.94;46.27;101031.91;2093511;28;47591;-60
2022/09/01 00:19:08;;;;;;;;;15.50;14.25;;;;;24.92;46.99;101030.31;2095406;28;47504;-60
2022/09/01 00:20:09;;;;;;;;;15.50;15.25;;;;;24.91;46.08;101026.72;2100920;28;47942;-62
2022/09/01 00:21:10;;;;;;;;;16.80;16.80;;;;;24.92;46.78;101033.03;2104127;28;47837;-59
2022/09/01 00:22:11;;;;;;;;;17.40;17.40;;;;;24.91;46.64;101031.28;2098264;28;47598;-59
2022/09/01 00:23:11;;;;;;;;;17.25;17.25;;;;;24.89;46.64;101031.38;2103300;28;47492;-60
2022/09/01 00:24:13;;;;;;;;;14.00;14.00;;;;;24.87;46.85;101024.34;2099036;28;47400;-60
2022/09/01 00:25:14;;;;;;;;;17.40;17.40;;;;;24.87;46.74;101018.91;2103587;28;47691;-60
2022/09/01 00:26:14;;;;;;;;;15.25;15.00;;;;;24.86;46.78;101017.19;2100273;28;47127;-59
2022/09/01 00:27:15;;;;;;;;;22.75;18.25;;;;;24.86;47.02;101020.78;2103640;28;47738;-62
2022/09/01 00:28:16;;;;;;;;;16.20;16.20;;;;;24.86;46.75;101017.19;2099610;28;47868;-60
2022/09/01 00:29:16;;;;;;;;;15.00;15.00;;;;;24.87;46.67;101024.34;2078205;28;47571;-59
2022/09/01 00:30:17;;;;;;;;;13.75;13.75;;;;;24.87;46.88;101024.34;2070710;28;48254;-60
2022/09/01 00:31:19;;;;;;;;;15.60;15.60;;;;;24.86;46.80;101028.06;2099414;28;48435;-59
2022/09/01 00:32:20;;;;;;;;;14.40;14.40;;;;;24.85;46.83;101021.75;2098667;28;47865;-60
2022/09/01 00:33:20;;;;;;;;;14.50;14.50;;;;;24.85;46.75;101023.59;2103971;28;47539;-58
2022/09/01 00:34:21;;;;;;;;;13.50;13.50;;;;;24.85;46.91;101018.19;2101329;28;47631;-60
2022/09/01 00:35:22;;;;;;;;;16.00;16.00;;;;;24.85;47.00;101023.59;2104598;27;47780;-61
2022/09/01 00:36:23;;;;;;;;;17.00;17.00;;;;;24.85;47.16;101026.31;2081941;28;47899;-59
2022/09/01 00:37:23;;;;;;;;;10.25;9.50;;;;;24.84;46.88;101027.31;2095586;28;48431;-61
2022/09/01 00:38:24;;;;;;;;;15.25;14.75;;;;;24.82;47.08;101024.72;2099242;27;48346;-61
2022/09/01 00:39:24;;;;;;;;;14.75;14.75;;;;;24.82;47.18;101019.28;2104869;28;47290;-60
2022/09/01 00:40:25;;;;;;;;;15.00;15.00;;;;;24.81;46.81;101022.13;2102122;28;47280;-60
2022/09/01 00:41:29;;;;;;;;;16.00;14.75;;;;;24.79;46.92;101022.25;2104524;28;47490;-60
2022/09/01 00:42:29;;;;;;;;;18.20;15.80;;;;;24.79;46.79;101021.38;2102170;28;48041;-60
2022/09/01 00:43:43;;;;;;;;;16.00;14.00;;;;;24.77;46.97;101026.88;2103950;28;47850;-59
2022/09/01 00:44:44;;;;;;;;;17.40;16.80;;;;;24.77;46.98;101028.75;2100902;28;47500;-60
2022/09/01 00:45:44;;;;;;;;;13.25;13.25;;;;;24.76;47.04;101025.16;2100864;28;47377;-59
2022/09/01 00:46:50;;;;;;;;;15.50;14.00;;;;;24.74;47.22;101021.69;2103746;28;47755;-59
2022/09/01 00:47:51;;;;;;;;;15.00;15.00;;;;;24.74;46.66;101024.41;2101204;28;48223;-59
2022/09/01 00:49:00;;;;;;;;;19.00;16.75;;;;;24.74;47.42;101020.84;2102610;27;47809;-60
2022/09/01 00:50:03;;;;;;;;;12.40;12.40;;;;;24.74;46.91;101019.00;2092968;28;47740;-59
2022/09/01 00:51:06;;;;;;;;;15.40;15.20;;;;;24.73;47.11;101019.97;2091661;28;47636;-61
2022/09/01 00:52:14;;;;;;;;;13.00;13.00;;;;;24.72;47.50;101017.38;2096523;28;47686;-60
2022/09/01 00:53:15;;;;;;;;;14.00;14.00;;;;;24.71;47.19;101015.66;2103970;28;47718;-60
2022/09/01 00:54:21;;;;;;;;;13.00;11.25;;;;;24.71;46.85;101015.66;2099852;28;47207;-60
2022/09/01 00:55:29;;;;;;;;;14.00;13.00;;;;;24.69;47.30;101023.91;2095029;28;47273;-59
2022/09/01 00:56:32;;;;;;;;;14.20;13.40;;;;;24.68;47.26;101016.75;2093982;28;47801;-60
2022/09/01 00:57:32;;;;;;;;;14.20;14.20;;;;;24.68;47.25;101022.19;2102656;28;47665;-60
2022/09/01 00:58:36;;;;;;;;;15.00;15.00;;;;;24.68;47.51;101019.47;2100416;28;47639;-60
2022/09/01 00:59:41;;;;;;;;;15.80;15.20;;;;;24.69;47.47;101014.91;2089806;28;47833;-59
2022/09/01 01:00:43;;;;;;;;;13.60;12.80;;;;;24.70;47.13;101016.63;2089353;28;47940;-59
2022/09/01 01:01:44;;;;;;;;;18.80;18.80;;;;;24.70;47.44;101019.34;2101742;28;48279;-60
2022/09/01 01:02:45;;;;;;;;;18.75;18.50;;;;;24.68;47.05;101016.75;2103018;28;47878;-59
2022/09/01 01:03:45;;;;;;;;;17.40;17.40;;;;;24.69;47.30;101015.78;2103321;28;47590;-60
2022/09/01 01:04:46;;;;;;;;;23.50;22.25;;;;;24.68;47.49;101014.03;2103500;28;47555;-58
2022/09/01 01:05:56;;;;;;;;;15.00;15.00;;;;;24.68;47.46;101016.75;2102465;28;47505;-60
2022/09/01 01:07:01;;;;;;;;;16.60;15.20;;;;;24.67;47.42;101012.31;2097835;28;46670;-58
2022/09/01 01:08:03;;;;;;;;;14.00;14.00;;;;;24.66;47.25;101013.31;2096453;28;47726;-58
2022/09/01 01:09:04;;;;;;;;;16.00;16.00;;;;;24.65;47.47;101015.16;2097640;28;47482;-57
2022/09/01 01:10:06;;;;;;;;;14.60;14.40;;;;;24.65;47.49;101008.84;2081639;28;47646;-60
2022/09/01 01:11:12;;;;;;;;;14.20;14.20;;;;;24.66;47.28;101018.72;2084964;28;47511;-58
2022/09/01 01:12:16;;;;;;;;;15.00;13.60;;;;;24.66;47.40;101013.31;2102476;28;48217;-59
2022/09/01 01:13:16;;;;;;;;;15.80;15.80;;;;;24.65;47.55;101015.16;2102300;28;47791;-60
2022/09/01 01:14:18;;;;;;;;;14.50;14.00;;;;;24.65;47.26;101014.28;2099431;28;47371;-60
2022/09/01 01:15:18;;;;;;;;;17.00;17.00;;;;;24.65;47.54;101009.72;2103491;28;46928;-60
2022/09/01 01:16:20;;;;;;;;;14.00;11.75;;;;;24.66;47.36;101005.16;2102045;28;47642;-60
2022/09/01 01:17:22;;;;;;;;;14.00;14.00;;;;;24.64;47.62;101007.09;2096661;28;47634;-59
2022/09/01 01:18:22;;;;;;;;;14.00;14.00;;;;;24.65;47.69;101008.84;2085065;28;47663;-60
2022/09/01 01:23:20;;;;;;;;;14.00;14.00;;;;;24.64;47.43;101004.38;2074077;28;47346;-60
2022/09/01 01:24:30;;;;;;;;;12.60;11.80;;;;;24.62;47.66;101009.06;2067186;28;48329;-59
2022/09/01 01:25:43;;;;;;;;;14.20;14.20;;;;;24.61;47.57;101008.19;2070158;28;47742;-57
2022/09/01 01:26:43;;;;;;;;;14.00;13.80;;;;;24.61;47.89;101010.06;2069711;28;47940;-59
2022/09/01 01:27:44;;;;;;;;;14.75;14.75;;;;;24.58;47.45;101005.72;2068362;28;47560;-61
2022/09/01 01:28:45;;;;;;;;;16.25;16.25;;;;;24.57;48.05;101014.00;2069612;28;47478;-60
2022/09/01 01:29:46;;;;;;;;;15.75;15.75;;;;;24.56;47.89;101013.13;2068881;28;47745;-60
2022/09/01 01:31:12;;;;;;;;;14.20;14.20;;;;;24.55;47.91;101005.97;2070262;28;47507;-60
2022/09/01 01:32:12;;;;;;;;;14.40;12.60;;;;;24.55;48.11;101005.97;2070830;28;47517;-60
2022/09/01 01:33:12;;;;;;;;;14.50;14.50;;;;;24.55;47.89;101010.53;2070747;28;47538;-60
2022/09/01 01:34:13;;;;;;;;;14.75;14.00;;;;;24.52;48.03;101006.22;2069022;28;47939;-60
2022/09/01 01:35:15;;;;;;;;;16.40;16.40;;;;;24.52;47.81;101013.44;2071610;28;47817;-59
2022/09/01 01:36:30;;;;;;;;;13.60;13.60;;;;;24.52;48.01;101008.91;2068653;28;47251;-60
2022/09/01 01:37:35;;;;;;;;;11.80;11.80;;;;;24.51;48.11;101012.59;2071377;28;47778;-60
2022/09/01 01:38:35;;;;;;;;;12.80;12.40;;;;;24.52;48.04;101010.75;2072456;28;48301;-60
2022/09/01 01:39:39;;;;;;;;;16.50;14.75;;;;;24.51;48.20;101011.72;2076885;28;47202;-59
2022/09/01 01:40:40;;;;;;;;;16.00;15.20;;;;;24.51;47.83;101011.72;2070178;28;47971;-59
2022/09/01 01:41:43;;;;;;;;;13.60;13.00;;;;;24.49;48.20;101011.84;2073053;28;47443;-59
2022/09/01 01:42:46;;;;;;;;;16.20;14.40;;;;;24.50;48.08;101018.13;2071216;28;47573;-61
2022/09/01 01:43:47;;;;;;;;;13.80;13.60;;;;;24.50;48.03;101018.13;2071784;28;47799;-61
2022/09/01 01:44:48;;;;;;;;;14.50;13.75;;;;;24.49;48.13;101005.56;2071442;28;47166;-60
2022/09/01 01:45:52;;;;;;;;;14.80;14.80;;;;;24.50;48.29;101018.13;2070598;28;47980;-59
2022/09/01 01:46:54;;;;;;;;;13.80;13.80;;;;;24.49;48.37;101011.84;2072898;28;47507;-59
2022/09/01 01:47:55;;;;;;;;;15.20;15.20;;;;;24.48;48.15;101012.81;2072986;28;47747;-60
2022/09/01 01:48:56;;;;;;;;;12.20;10.40;;;;;24.49;48.25;101014.56;2071510;28;47907;-59
2022/09/01 01:49:56;;;;;;;;;16.00;15.00;;;;;24.48;48.39;101018.25;2070099;28;47588;-60
2022/09/01 01:50:58;;;;;;;;;17.25;16.75;;;;;24.48;48.38;101014.66;2071758;28;47365;-60
2022/09/01 01:52:00;;;;;;;;;11.20;11.20;;;;;24.46;48.37;101020.22;2069722;28;47636;-60
2022/09/01 01:53:07;;;;;;;;;8.60;8.60;;;;;24.45;48.35;101014.91;2071320;28;47367;-60
2022/09/01 01:54:07;;;;;;;;;12.80;12.80;;;;;24.44;48.40;101007.75;2081050;28;47426;-59
2022/09/01 01:55:11;;;;;;;;;14.50;12.50;;;;;24.43;48.48;101011.44;2104983;28;47999;-57
2022/09/01 01:56:12;;;;;;;;;17.60;17.60;;;;;24.43;48.64;101014.16;2099078;28;47144;-59
2022/09/01 01:57:16;;;;;;;;;12.00;11.60;;;;;24.42;48.21;101007.00;2104645;28;47816;-59
2022/09/01 01:58:19;;;;;;;;;12.60;12.60;;;;;24.40;48.73;101011.69;2102303;28;46987;-58
2022/09/01 01:59:23;;;;;;;;;16.00;16.00;;;;;24.42;48.28;101017.88;2097352;28;47541;-60
2022/09/01 02:00:27;;;;;;;;;17.00;15.20;;;;;24.39;48.59;101012.63;2100619;28;47439;-60
2022/09/01 02:01:30;;;;;;;;;13.00;11.80;;;;;24.38;48.63;101011.78;2103590;28;48152;-59
2022/09/01 02:02:31;;;;;;;;;15.40;15.40;;;;;24.39;48.41;101012.63;2099844;28;48239;-60
2022/09/01 02:03:37;;;;;;;;;12.50;12.50;;;;;24.38;48.88;101010.91;2103795;28;47649;-59
2022/09/01 02:04:39;;;;;;;;;12.40;12.40;;;;;24.36;49.02;101009.19;2100894;28;47553;-60
2022/09/01 02:05:39;;;;;;;;;14.20;12.60;;;;;24.34;48.75;101016.56;2105599;28;48195;-57
2022/09/01 02:06:44;;;;;;;;;15.25;15.25;;;;;24.34;48.74;101011.16;2101313;28;47493;-57
2022/09/01 02:07:45;;;;;;;;;14.60;13.60;;;;;24.35;48.65;101012.00;2104241;27;47139;-60
2022/09/01 02:08:45;;;;;;;;;14.50;13.75;;;;;24.34;48.87;101015.72;2087272;28;47461;-60
2022/09/01 02:09:47;;;;;;;;;15.00;15.00;;;;;24.35;48.53;101012.00;2087566;28;47799;-59
2022/09/01 02:10:54;;;;;;;;;15.80;13.80;;;;;24.35;48.67;101018.31;2087674;28;48039;-60
2022/09/01 02:11:56;;;;;;;;;11.80;11.80;;;;;24.36;48.61;101019.16;2078163;28;47459;-60
2022/09/01 02:13:02;;;;;;;;;13.00;12.00;;;;;24.36;48.71;101014.59;2078276;28;47664;-60
2022/09/01 02:14:05;;;;;;;;;15.80;14.00;;;;;24.36;48.50;101013.75;2085511;28;47868;-60
2022/09/01 02:15:06;;;;;;;;;14.40;13.60;;;;;24.35;49.02;101021.00;2087807;28;47762;-59
2022/09/01 02:16:11;;;;;;;;;12.20;12.20;;;;;24.36;48.65;101020.03;2085375;28;48075;-60
2022/09/01 02:17:12;;;;;;;;;13.20;12.60;;;;;24.35;48.86;101018.31;2086565;28;47503;-60
2022/09/01 02:18:18;;;;;;;;;15.00;15.00;;;;;24.35;48.79;101012.00;2087196;28;47608;-61
2022/09/01 02:19:19;;;;;;;;;13.20;13.20;;;;;24.34;48.72;101021.13;2079216;28;47475;-60
2022/09/01 02:20:21;;;;;;;;;13.80;13.00;;;;;24.32;48.74;101013.13;2084632;28;47849;-59
2022/09/01 02:21:25;;;;;;;;;16.80;14.00;;;;;24.31;48.90;101015.94;2087238;28;47512;-59
2022/09/01 02:22:27;;;;;;;;;15.80;15.20;;;;;24.30;49.16;101023.22;2086244;28;48128;-60
2022/09/01 02:23:28;;;;;;;;;11.00;11.00;;;;;24.30;49.04;101022.34;2079451;28;47939;-60
2022/09/01 02:24:29;;;;;;;;;14.80;12.80;;;;;24.28;48.85;101019.72;2077847;28;47916;-59
2022/09/01 02:25:30;;;;;;;;;17.00;15.75;;;;;24.28;48.92;101019.72;2087421;28;47481;-60
2022/09/01 02:26:38;;;;;;;;;13.00;13.00;;;;;24.26;48.77;101013.53;2074589;28;46200;-60
2022/09/01 02:27:38;;;;;;;;;12.00;12.00;;;;;24.24;49.15;101017.31;2076273;28;48212;-59
2022/09/01 02:28:41;;;;;;;;;16.25;14.25;;;;;24.23;49.30;101019.19;2085658;28;48012;-59
2022/09/01 02:29:41;;;;;;;;;13.20;13.20;;;;;24.23;48.70;101018.31;2082734;28;47473;-59
2022/09/01 02:30:48;;;;;;;;;9.25;9.25;;;;;24.22;49.12;101016.59;2086931;28;47509;-59
2022/09/01 02:31:52;;;;;;;;;13.60;13.60;;;;;24.22;48.99;101022.00;2082830;28;47568;-59
2022/09/01 02:32:53;;;;;;;;;15.20;14.80;;;;;24.24;49.07;101022.75;2084245;28;47226;-59
2022/09/01 02:33:53;;;;;;;;;13.50;13.50;;;;;24.22;49.25;101019.28;2086352;28;47918;-58
2022/09/01 02:35:00;;;;;;;;;15.50;14.00;;;;;24.22;49.69;101024.72;2087729;28;47803;-57
2022/09/01 02:36:04;;;;;;;;;13.00;12.40;;;;;24.22;49.09;101019.28;2085410;28;47105;-60
2022/09/01 02:37:05;;;;;;;;;12.40;12.00;;;;;24.22;49.34;101024.72;2087515;28;48077;-57
2022/09/01 02:38:05;;;;;;;;;11.75;11.75;;;;;24.23;49.41;101023.72;2077152;28;47425;-59
2022/09/01 02:39:06;;;;;;;;;13.25;13.25;;;;;24.23;49.45;101024.59;2078473;28;47702;-60
2022/09/01 02:40:11;;;;;;;;;12.75;12.75;;;;;24.22;49.41;101022.00;2087326;28;47579;-60
2022/09/01 02:41:13;;;;;;;;;12.00;12.00;;;;;24.21;49.29;101018.44;2104610;28;47490;-59
2022/09/01 02:42:15;;;;;;;;;14.80;14.40;;;;;24.22;49.19;101022.88;2101113;28;48888;-59
2022/09/01 02:43:19;;;;;;;;;16.00;15.00;;;;;24.21;49.20;101015.72;2105034;28;47359;-59
2022/09/01 02:44:21;;;;;;;;;13.00;13.00;;;;;24.22;49.49;101019.28;2099829;28;47940;-59
2022/09/01 02:45:23;;;;;;;;;12.80;12.80;;;;;24.22;49.40;101016.59;2105424;28;47282;-59
2022/09/01 02:46:24;;;;;;;;;11.80;11.20;;;;;24.22;49.31;101019.28;2099627;28;48326;-59
2022/09/01 02:47:27;;;;;;;;;12.25;12.00;;;;;24.20;49.61;101016.69;2105260;27;48214;-60
2022/09/01 02:48:34;;;;;;;;;13.20;12.80;;;;;24.18;49.44;101015.94;2100632;28;47589;-59
2022/09/01 02:49:35;;;;;;;;;13.60;13.60;;;;;24.18;49.48;101017.81;2099459;28;46891;-59
2022/09/01 02:50:37;;;;;;;;;13.80;13.60;;;;;24.17;49.46;101010.66;2103747;28;47639;-59
2022/09/01 02:51:38;;;;;;;;;12.40;12.40;;;;;24.15;49.84;101013.47;2103284;28;47953;-60
2022/09/01 02:52:39;;;;;;;;;12.25;12.00;;;;;24.15;49.51;101012.59;2100791;28;47501;-58
2022/09/01 02:53:41;;;;;;;;;15.00;14.00;;;;;24.14;49.65;101016.28;2102762;28;47766;-59
2022/09/01 02:54:44;;;;;;;;;8.20;8.20;;;;;24.14;49.67;101011.75;2102408;28;47455;-59
2022/09/01 02:55:44;;;;;;;;;12.20;12.00;;;;;24.15;49.61;101009.91;2103998;28;47407;-59
2022/09/01 02:56:48;;;;;;;;;15.25;15.25;;;;;24.14;49.54;101011.75;2101493;28;47407;-59
2022/09/01 02:57:53;;;;;;;;;11.80;11.20;;;;;24.14;49.42;101009.03;2098736;28;47799;-59
2022/09/01 02:58:54;;;;;;;;;14.20;13.20;;;;;24.13;49.48;101011.84;2097434;28;47558;-60
2022/09/01 02:59:57;;;;;;;;;11.60;11.60;;;;;24.13;49.48;101012.69;2101873;28;48268;-57
2022/09/01 03:00:58;;;;;;;;;10.80;10.80;;;;;24.14;49.56;101010.84;2102517;28;47431;-57
2022/09/01 03:01:59;;;;;;;;;13.25;13.25;;;;;24.15;49.58;101009.91;2102171;28;47608;-58
2022/09/01 03:03:01;;;;;;;;;14.25;12.00;;;;;24.16;49.64;101011.63;2104243;28;47477;-59
2022/09/01 03:04:04;;;;;;;;;12.40;12.40;;;;;24.15;49.52;101009.91;2100614;28;47670;-59
2022/09/01 03:05:06;;;;;;;;;13.40;13.40;;;;;24.16;49.77;101008.91;2103275;28;47265;-60
2022/09/01 03:06:08;;;;;;;;;12.60;12.60;;;;;24.16;49.63;101008.91;2102127;28;48009;-60
2022/09/01 03:07:09;;;;;;;;;11.80;10.60;;;;;24.15;49.73;101007.19;2098045;28;47586;-60
2022/09/01 03:08:13;;;;;;;;;14.50;12.75;;;;;24.15;49.81;101005.34;2097747;28;47068;-58
2022/09/01 03:09:16;;;;;;;;;11.40;11.40;;;;;24.15;49.53;101009.91;2104994;28;47329;-59
2022/09/01 03:10:20;;;;;;;;;14.00;14.00;;;;;24.14;50.15;101010.84;2098044;28;47563;-59
2022/09/01 03:11:23;;;;;;;;;12.00;11.80;;;;;24.15;49.89;101007.19;2097312;28;47131;-60
2022/09/01 03:12:23;;;;;;;;;13.00;12.60;;;;;24.13;49.71;101007.28;2100488;28;47586;-58
2022/09/01 03:13:24;;;;;;;;;13.25;13.25;;;;;24.15;49.68;101012.59;2103267;28;47253;-60
2022/09/01 03:14:25;;;;;;;;;15.50;15.50;;;;;24.14;49.87;101006.31;2095373;28;48238;-58
2022/09/01 03:15:26;;;;;;;;;12.60;12.60;;;;;24.15;49.73;101007.19;2101974;28;47960;-59
2022/09/01 03:16:29;;;;;;;;;12.40;12.20;;;;;24.14;49.85;101003.59;2095082;28;47441;-59
2022/09/01 03:17:29;;;;;;;;;12.40;12.40;;;;;24.13;49.51;101007.28;2101235;28;48269;-59
2022/09/01 03:18:29;;;;;;;;;12.00;11.00;;;;;24.12;49.90;101004.69;2100448;28;47298;-59
2022/09/01 03:19:38;;;;;;;;;11.00;11.00;;;;;24.12;50.01;101000.13;2105133;28;47454;-59
2022/09/01 03:20:43;;;;;;;;;13.20;13.20;;;;;24.11;49.90;101006.53;2101079;28;47591;-59
2022/09/01 03:21:44;;;;;;;;;13.60;13.20;;;;;24.10;49.91;101002.09;2101473;28;47371;-59
2022/09/01 03:22:46;;;;;;;;;14.40;13.00;;;;;24.11;49.92;101005.66;2104150;28;47929;-59
2022/09/01 03:23:48;;;;;;;;;13.80;13.80;;;;;24.11;49.69;101000.22;2104040;28;47775;-60
2022/09/01 03:24:48;;;;;;;;;13.60;13.60;;;;;24.09;50.11;101000.34;2104164;28;47472;-60
2022/09/01 03:25:48;;;;;;;;;12.50;12.50;;;;;24.11;50.09;101000.22;2094310;28;47670;-59
2022/09/01 03:26:49;;;;;;;;;12.75;12.75;;;;;24.11;49.84;101006.53;2096106;28;47952;-60
2022/09/01 03:27:53;;;;;;;;;13.00;12.50;;;;;24.10;49.98;101002.09;2102616;27;47660;-59
2022/09/01 03:28:54;;;;;;;;;13.60;13.60;;;;;24.10;49.96;101003.94;2101678;28;47633;-59
2022/09/01 03:29:54;;;;;;;;;11.00;11.00;;;;;24.09;50.02;101003.06;2103377;28;47833;-60
2022/09/01 03:30:56;;;;;;;;;12.00;12.00;;;;;24.09;49.84;101003.06;2102107;28;47609;-60
2022/09/01 03:31:56;;;;;;;;;11.00;11.00;;;;;24.08;49.97;100998.63;2101731;28;47428;-60
2022/09/01 03:32:58;;;;;;;;;11.75;11.00;;;;;24.07;49.78;101000.47;2100912;28;47338;-60
2022/09/01 03:34:00;;;;;;;;;11.80;11.80;;;;;24.07;49.89;101003.19;2094876;27;48024;-60
2022/09/01 03:35:00;;;;;;;;;12.40;12.20;;;;;24.07;50.01;100999.59;2102643;27;47546;-60
2022/09/01 03:36:01;;;;;;;;;12.50;12.50;;;;;24.07;50.03;100991.47;2100801;28;47597;-59
2022/09/01 03:37:06;;;;;;;;;16.25;15.00;;;;;24.07;49.97;100994.19;2103095;28;48248;-60
2022/09/01 03:38:06;;;;;;;;;12.80;12.80;;;;;24.05;50.07;100996.16;2101337;28;47905;-60
2022/09/01 03:39:08;;;;;;;;;12.75;12.75;;;;;24.03;49.86;100996.25;2103377;28;47387;-59
2022/09/01 03:40:10;;;;;;;;;10.20;10.20;;;;;24.04;50.01;101002.56;2101036;28;47825;-60
2022/09/01 03:41:11;;;;;;;;;14.00;13.00;;;;;24.04;50.22;100997.13;2086985;28;47920;-60
2022/09/01 03:42:18;;;;;;;;;12.40;12.40;;;;;24.03;50.01;100998.97;2082943;28;45727;-60
2022/09/01 03:43:23;;;;;;;;;12.00;12.00;;;;;24.04;50.17;100999.84;2103310;27;47550;-60
2022/09/01 03:44:24;;;;;;;;;10.60;10.60;;;;;24.02;50.09;100996.38;2103158;27;47493;-60
2022/09/01 03:45:25;;;;;;;;;13.00;13.00;;;;;24.02;49.73;100996.38;2104792;28;47173;-61
2022/09/01 03:46:29;;;;;;;;;11.00;11.00;;;;;24.01;50.43;100997.31;2101180;28;47492;-60
2022/09/01 03:47:29;;;;;;;;;13.40;13.40;;;;;24.01;50.19;100997.31;2103164;28;47839;-60
2022/09/01 03:48:31;;;;;;;;;14.50;12.50;;;;;24.01;49.89;100992.81;2101598;28;47678;-59
2022/09/01 03:49:31;;;;;;;;;14.20;13.00;;;;;24.02;49.95;100990.97;2101984;27;47372;-60
2022/09/01 03:50:31;;;;;;;;;12.50;11.00;;;;;24.02;50.07;100997.25;2095330;28;47740;-60
2022/09/01 03:51:32;;;;;;;;;13.00;10.50;;;;;24.03;50.16;100989.97;2097881;28;47941;-59
2022/09/01 03:52:33;;;;;;;;;11.25;11.25;;;;;24.03;50.07;100993.56;2096693;28;47401;-60
2022/09/01 03:53:37;;;;;;;;;11.00;11.00;;;;;24.03;50.38;100992.69;2101628;28;47130;-60
2022/09/01 03:54:37;;;;;;;;;12.20;12.20;;;;;24.03;49.96;100988.13;2086020;28;48064;-59
2022/09/01 03:55:38;;;;;;;;;11.75;11.75;;;;;24.03;50.00;100998.97;2086329;28;47392;-58
2022/09/01 03:56:40;;;;;;;;;10.25;10.25;;;;;24.04;50.11;100994.41;2091685;28;47364;-58
2022/09/01 03:57:41;;;;;;;;;10.80;10.80;;;;;24.04;49.89;100994.41;2094815;28;47707;-60
2022/09/01 03:58:46;;;;;;;;;11.75;11.50;;;;;24.03;50.06;100996.25;2100889;28;47608;-59
2022/09/01 03:59:46;;;;;;;;;13.00;12.00;;;;;24.03;49.79;100989.97;2101572;28;47347;-60
2022/09/01 04:00:51;;;;;;;;;12.75;11.75;;;;;24.02;49.79;100991.81;2101073;28;47537;-60
2022/09/01 04:01:52;;;;;;;;;9.60;9.60;;;;;24.01;50.17;100990.09;2101557;27;47598;-60
2022/09/01 04:02:55;;;;;;;;;12.00;12.00;;;;;24.00;49.85;100985.63;2101636;28;47774;-60
2022/09/01 04:03:56;;;;;;;;;12.80;12.20;;;;;24.01;49.97;100987.38;2103354;28;47517;-62
2022/09/01 04:04:57;;;;;;;;;11.80;10.80;;;;;23.99;49.94;100992.03;2102044;28;47863;-60
2022/09/01 04:05:59;;;;;;;;;10.80;10.80;;;;;23.98;49.93;100987.59;2102206;28;47260;-60
2022/09/01 04:06:59;;;;;;;;;12.00;12.00;;;;;23.98;49.83;100987.59;2104883;28;48169;-59
2022/09/01 04:08:04;;;;;;;;;11.50;11.00;;;;;23.98;49.98;100994.84;2099979;28;47803;-60
2022/09/01 04:09:05;;;;;;;;;10.40;10.40;;;;;23.97;49.80;100987.69;2104483;28;47951;-60
2022/09/01 04:10:10;;;;;;;;;12.25;12.25;;;;;23.97;49.93;100993.13;2101752;28;47101;-60
2022/09/01 04:11:17;;;;;;;;;11.20;9.80;;;;;23.97;50.29;100985.84;2097619;28;47476;-61
2022/09/01 04:12:17;;;;;;;;;10.80;10.00;;;;;23.97;49.72;100987.69;2099872;28;47907;-60
2022/09/01 04:13:21;;;;;;;;;11.00;11.00;;;;;23.96;49.80;100983.25;2096369;28;47335;-60
2022/09/01 04:14:24;;;;;;;;;10.20;10.00;;;;;23.95;50.06;100982.38;2103655;27;47709;-61
2022/09/01 04:15:26;;;;;;;;;12.20;11.40;;;;;23.92;50.26;100977.19;2104189;27;47301;-61
2022/09/01 04:18:08;;;;;;;;;11.00;11.00;;;;;23.87;50.22;100983.91;2099096;27;46496;-60
2022/09/01 04:19:18;;;;;;;;;11.60;11.20;;;;;23.84;49.90;100976.88;2103733;28;47588;-60
2022/09/01 04:20:20;;;;;;;;;11.20;11.00;;;;;23.86;50.14;100976.78;2103546;28;47583;-60
2022/09/01 04:21:21;;;;;;;;;12.20;11.80;;;;;23.86;50.05;100982.19;2097257;28;47739;-60
2022/09/01 04:22:23;;;;;;;;;12.75;12.75;;;;;23.87;50.21;100978.50;2100111;28;47912;-60
2022/09/01 04:23:25;;;;;;;;;12.60;11.00;;;;;23.86;50.07;100977.63;2102667;28;47690;-60
2022/09/01 04:24:28;;;;;;;;;10.20;10.20;;;;;23.87;50.05;100973.06;2094780;28;47755;-57
2022/09/01 04:25:28;;;;;;;;;9.00;9.00;;;;;23.86;49.97;100977.63;2104918;28;47644;-59
2022/09/01 04:26:30;;;;;;;;;12.50;10.50;;;;;23.86;49.92;100969.50;2102222;28;47426;-59
2022/09/01 04:27:30;;;;;;;;;11.00;10.00;;;;;23.87;49.79;100973.06;2086533;28;47572;-59
2022/09/01 04:28:34;;;;;;;;;9.50;9.50;;;;;23.87;49.96;100975.78;2078758;28;47548;-60
2022/09/01 04:29:35;;;;;;;;;10.20;10.00;;;;;23.87;49.90;100982.06;2103085;28;47717;-58
2022/09/01 04:30:39;;;;;;;;;11.00;11.00;;;;;23.86;50.14;100977.63;2100239;28;47743;-60
2022/09/01 04:31:41;;;;;;;;;10.40;10.40;;;;;23.85;49.93;100981.31;2099444;28;47565;-59
2022/09/01 04:32:44;;;;;;;;;10.00;10.00;;;;;23.84;50.08;100978.72;2100861;28;47825;-60
2022/09/01 04:33:47;;;;;;;;;11.60;11.40;;;;;23.83;49.99;100977.88;2102906;28;47736;-60
2022/09/01 04:34:48;;;;;;;;;14.40;11.20;;;;;23.82;49.97;100973.44;2104152;28;48075;-60
2022/09/01 04:35:51;;;;;;;;;10.00;10.00;;;;;23.82;50.33;100975.28;2098144;28;47653;-60
2022/09/01 04:36:53;;;;;;;;;11.60;10.80;;;;;23.80;50.24;100975.38;2100147;28;46946;-60
2022/09/01 04:37:53;;;;;;;;;11.00;11.00;;;;;23.79;50.09;100976.38;2095376;28;47840;-60
2022/09/01 04:38:57;;;;;;;;;10.25;10.25;;;;;23.77;50.06;100971.06;2100415;28;47685;-59
2022/09/01 04:39:58;;;;;;;;;8.80;8.60;;;;;23.75;50.14;100981.13;2100195;27;47630;-59
2022/09/01 04:41:03;;;;;;;;;13.00;13.00;;;;;23.75;50.34;100977.53;2102472;28;47490;-60
2022/09/01 04:42:05;;;;;;;;;11.60;11.60;;;;;23.73;50.01;100974.09;2101617;28;47674;-60
2022/09/01 04:43:06;;;;;;;;;11.20;11.20;;;;;23.74;50.05;100975.81;2103044;28;47776;-59
2022/09/01 04:44:07;;;;;;;;;13.80;11.80;;;;;23.72;50.36;100980.47;2100846;28;47475;-59
2022/09/01 04:45:09;;;;;;;;;14.20;12.60;;;;;23.69;50.19;100973.44;2109863;27;48048;-60
2022/09/01 04:46:13;;;;;;;;;13.60;13.60;;;;;23.66;50.14;100981.81;2099650;27;47556;-60
2022/09/01 04:47:15;;;;;;;;;10.80;10.80;;;;;23.62;50.24;100976.69;2104003;28;47306;-59
2022/09/01 04:48:16;;;;;;;;;11.20;11.20;;;;;23.59;50.34;100976.94;2099511;28;47336;-60
2022/09/01 04:49:21;;;;;;;;;14.75;14.00;;;;;23.56;50.49;100975.28;2104177;28;47297;-59